Williamston, Michigan
Current Conditions -  °F | °C
As of 7:32 AM on Monday 24 Nov 2014 (Local Time) from KTEW Reporting Station
Moderate Rain Moderate Rain  
Wind Chill: 51°   Ceiling: 900
Heat Index: 51°   Visibility: 4mi
Dew Point: 50°   Wind: 6mph
Humidity: 95%   Direction: 200°SSW
Pressure: 29.1"   Gusts: NA
Location:  42.69°N, 84.28°W
Report Text: KTEW 241232Z AUTO 20005KT 4SM RA OVC009 11/10 A2910 RMK AO2 T01060098
Loading
Personal Weather Stations






























Interactive Weather Map New forecast layout! Learn more

10-Day Weather Forecast

Advertisements
Track Severe Weather on mobile